createdAt,value
2022-11-23T00:01:30.914Z,98958.22
2022-11-23T00:04:02.737Z,98957.16
2022-11-23T00:06:29.704Z,98957.47
2022-11-23T00:08:57.966Z,98956.38
2022-11-23T00:11:26.570Z,98952.66
2022-11-23T00:13:54.269Z,98946.34
2022-11-23T00:16:27.493Z,98939.56
2022-11-23T00:18:57.429Z,98937.78
2022-11-23T00:21:26.590Z,98947.97
2022-11-23T00:23:53.867Z,98948.56
2022-11-23T00:26:21.446Z,98947.75
2022-11-23T00:28:48.702Z,98949.88
2022-11-23T00:31:20.681Z,98958.19
2022-11-23T00:33:53.552Z,98959.19
2022-11-23T00:36:21.894Z,98965.56
2022-11-23T00:38:50.121Z,98965.94
2022-11-23T00:41:23.130Z,98967.72
2022-11-23T00:43:50.442Z,98968.91
2022-11-23T00:46:25.197Z,98967.56
2022-11-23T00:48:54.152Z,98971.72
2022-11-23T00:51:35.157Z,98976.22
2022-11-23T00:54:06.357Z,98979.91
2022-11-23T00:56:35.415Z,98975.56
2022-11-23T00:59:03.678Z,98979.63
2022-11-23T01:01:34.516Z,98980.47
2022-11-23T01:04:04.252Z,98983.72
2022-11-23T01:06:35.536Z,98991.34
2022-11-23T01:09:11.163Z,98987.34
2022-11-23T01:11:38.262Z,98988.19
2022-11-23T01:14:05.247Z,98985.09
2022-11-23T01:16:36.495Z,98985.75
2022-11-23T01:19:08.178Z,98988.47
2022-11-23T01:21:36.185Z,98992.38
2022-11-23T01:24:11.442Z,98989.19
2022-11-23T01:26:39.265Z,98990.53
2022-11-23T01:29:06.866Z,98986.19
2022-11-23T01:31:34.040Z,98995.31
2022-11-23T01:34:03.249Z,98996.84
2022-11-23T01:36:33.504Z,98994.28
2022-11-23T01:39:02.201Z,98989.41
2022-11-23T01:41:36.969Z,98990.22
2022-11-23T01:44:23.785Z,98987.97
2022-11-23T01:46:50.742Z,98987.91
2022-11-23T01:49:18.316Z,98988.72
2022-11-23T01:51:49.748Z,98993.03
2022-11-23T01:54:34.449Z,98991.59
2022-11-23T01:57:07.467Z,98985.75
2022-11-23T01:59:35.551Z,98992.94
2022-11-23T02:02:03.824Z,98989.34
2022-11-23T02:04:35.508Z,98982.53
2022-11-23T02:07:04.625Z,98975.34
2022-11-23T02:09:34.011Z,98984.16
2022-11-23T02:12:01.266Z,98985.06
2022-11-23T02:14:29.143Z,98979.47
2022-11-23T02:16:59.365Z,98985.06
2022-11-23T02:19:51.934Z,98986.75
2022-11-23T02:23:08.340Z,98979.66
2022-11-23T02:25:54.202Z,98982.81
2022-11-23T02:28:32.258Z,98982.69
2022-11-23T02:30:59.717Z,98982.22
2022-11-23T02:33:26.710Z,98983.50
2022-11-23T02:35:59.344Z,98981.25
2022-11-23T02:38:32.238Z,98975.34
2022-11-23T02:40:59.239Z,98969.28
2022-11-23T02:43:26.226Z,98976.56
2022-11-23T02:46:04.376Z,98973.72
2022-11-23T02:48:31.332Z,98975.44
2022-11-23T02:50:58.221Z,98976.91
2022-11-23T02:53:25.204Z,98978.03
2022-11-23T02:55:52.102Z,98968.19
2022-11-23T02:58:18.993Z,98971.06
2022-11-23T03:00:45.976Z,98970.28
2022-11-23T03:03:12.958Z,98966.28
2022-11-23T03:05:39.849Z,98964.03
2022-11-23T03:08:06.944Z,98958.69
2022-11-23T03:10:34.231Z,98962.31
2022-11-23T03:13:01.161Z,98967.81
2022-11-23T03:15:28.691Z,98964.53
2022-11-23T03:17:57.877Z,98974.03
2022-11-23T03:20:25.354Z,98970.94
2022-11-23T03:22:52.340Z,98970.72
2022-11-23T03:25:19.207Z,98966.13
2022-11-23T03:27:46.123Z,98978.66
2022-11-23T03:30:13.374Z,98981.09
2022-11-23T03:32:40.344Z,98986.16
2022-11-23T03:35:07.961Z,98976.56
2022-11-23T03:37:35.167Z,98984.81
2022-11-23T03:40:02.967Z,98974.25
2022-11-23T03:42:30.958Z,98971.31
2022-11-23T03:44:57.851Z,98972.97
2022-11-23T03:47:24.827Z,98966.78
2022-11-23T03:49:51.697Z,98968.56
2022-11-23T03:52:18.582Z,98968.41
2022-11-23T03:54:45.586Z,98963.53
2022-11-23T03:57:12.643Z,98972.34
2022-11-23T03:59:39.555Z,98970.81
2022-11-23T04:02:08.027Z,98975.19
2022-11-23T04:04:36.063Z,98980.25
2022-11-23T04:07:03.392Z,98973.47
2022-11-23T04:09:30.704Z,98965.81
2022-11-23T04:11:57.834Z,98980.34
2022-11-23T04:14:24.799Z,98971.38
2022-11-23T04:16:51.786Z,98969.19
2022-11-23T04:19:18.745Z,98964.88
2022-11-23T04:21:45.697Z,98965.81
2022-11-23T04:24:12.593Z,98960.31
2022-11-23T04:26:40.718Z,98961.78
2022-11-23T04:29:07.671Z,98957.41
2022-11-23T04:31:34.845Z,98963.06
2022-11-23T04:34:01.822Z,98959.66
2022-11-23T04:36:28.901Z,98960.63
2022-11-23T04:38:56.018Z,98966.13
2022-11-23T04:41:23.752Z,98965.47
2022-11-23T04:43:51.895Z,98963.22
2022-11-23T04:46:18.976Z,98962.66
2022-11-23T04:48:46.054Z,98961.75
2022-11-23T04:51:13.494Z,98957.91
2022-11-23T04:53:40.472Z,98963.06
2022-11-23T04:56:07.973Z,98970.53
2022-11-23T04:58:36.560Z,98968.00
2022-11-23T05:01:04.925Z,98956.56
2022-11-23T05:03:34.883Z,98961.84
2022-11-23T05:06:07.387Z,98957.50
2022-11-23T05:08:34.267Z,98967.53
2022-11-23T05:11:01.297Z,98964.03
2022-11-23T05:13:28.432Z,98958.38
2022-11-23T05:15:55.363Z,98953.41
2022-11-23T05:18:22.271Z,98961.69
2022-11-23T05:20:49.218Z,98965.50
2022-11-23T05:23:16.190Z,98958.94
2022-11-23T05:25:43.231Z,98964.50
2022-11-23T05:28:38.911Z,98969.22
2022-11-23T05:31:05.414Z,98963.84
2022-11-23T05:33:32.603Z,98968.94
2022-11-23T05:35:59.543Z,98969.25
2022-11-23T05:38:26.534Z,98971.84
2022-11-23T05:40:53.440Z,98966.69
2022-11-23T05:43:20.511Z,98968.28
2022-11-23T05:45:47.375Z,98967.28
2022-11-23T05:48:14.317Z,98967.97
2022-11-23T05:50:41.222Z,98972.75
2022-11-23T05:53:09.025Z,98970.94
2022-11-23T05:55:35.939Z,98976.22
2022-11-23T05:58:03.813Z,98974.91
2022-11-23T06:00:30.746Z,98982.38
2022-11-23T06:03:02.110Z,98988.38
2022-11-23T06:05:30.160Z,98986.16
2022-11-23T06:07:57.118Z,98984.44
2022-11-23T06:10:24.091Z,98983.50
2022-11-23T06:12:52.594Z,98997.47
2022-11-23T06:15:19.706Z,98994.34
2022-11-23T06:17:46.578Z,98990.00
2022-11-23T06:20:13.734Z,98983.41
2022-11-23T06:22:40.683Z,98982.03
2022-11-23T06:25:08.077Z,98985.81
2022-11-23T06:27:35.185Z,98989.34
2022-11-23T06:30:02.210Z,98987.94
2022-11-23T06:32:29.217Z,98991.34
2022-11-23T06:35:00.522Z,98994.94
2022-11-23T06:37:28.065Z,99001.22
2022-11-23T06:39:54.966Z,98995.22
2022-11-23T06:42:39.320Z,98999.59
2022-11-23T06:45:08.257Z,98998.72
2022-11-23T06:47:35.330Z,98997.81
2022-11-23T06:50:02.411Z,98998.66
2022-11-23T06:52:29.397Z,99001.59
2022-11-23T06:54:56.365Z,99008.13
2022-11-23T06:57:23.302Z,99009.72
2022-11-23T06:59:50.277Z,99007.28
2022-11-23T07:02:17.195Z,99005.47
2022-11-23T07:04:44.097Z,99018.41
2022-11-23T07:07:11.427Z,99019.78
2022-11-23T07:09:38.465Z,99011.50
2022-11-23T07:12:05.778Z,99010.69
2022-11-23T07:14:32.695Z,99012.81
2022-11-23T07:16:59.642Z,99020.00
2022-11-23T07:19:26.534Z,99014.75
2022-11-23T07:21:53.443Z,99027.47
2022-11-23T07:24:20.772Z,99024.22
2022-11-23T07:26:47.686Z,99021.22
2022-11-23T07:29:14.697Z,99029.16
2022-11-23T07:31:41.617Z,99024.00
2022-11-23T07:34:09.344Z,99029.03
2022-11-23T07:36:36.628Z,99035.16
2022-11-23T07:39:03.940Z,99031.00
2022-11-23T07:41:30.811Z,99033.59
2022-11-23T07:43:57.946Z,99032.47
2022-11-23T07:46:25.062Z,99034.09
2022-11-23T07:48:54.306Z,99034.25
2022-11-23T07:51:21.336Z,99032.94
2022-11-23T07:53:48.373Z,99034.72
2022-11-23T07:56:15.276Z,99032.44
2022-11-23T07:58:42.194Z,99026.91
2022-11-23T08:01:09.246Z,99035.63
2022-11-23T08:03:36.257Z,99046.31
2022-11-23T08:06:03.322Z,99035.75
2022-11-23T08:08:30.482Z,99031.53
2022-11-23T08:10:57.470Z,99033.16
2022-11-23T08:13:24.638Z,99044.66
2022-11-23T08:15:55.544Z,99034.56
2022-11-23T08:18:26.154Z,99037.19
2022-11-23T08:20:53.788Z,99021.81
2022-11-23T08:23:21.096Z,99023.81
2022-11-23T08:25:47.974Z,99018.47
2022-11-23T08:28:14.924Z,99021.66
2022-11-23T08:30:41.783Z,99033.22
2022-11-23T08:33:09.951Z,99023.50
2022-11-23T08:35:39.604Z,99029.97
2022-11-23T08:38:08.115Z,99016.84
2022-11-23T08:40:36.453Z,99017.66
2022-11-23T08:43:04.374Z,99013.84
2022-11-23T08:45:31.590Z,99018.47
2022-11-23T08:48:03.180Z,99013.63
2022-11-23T08:50:31.333Z,99007.84
2022-11-23T08:52:59.897Z,99007.16
2022-11-23T08:55:28.772Z,99010.38
2022-11-23T08:57:57.742Z,99003.44
2022-11-23T09:00:26.883Z,99008.13
2022-11-23T09:02:54.347Z,99014.78
2022-11-23T09:05:21.376Z,99004.97
2022-11-23T09:07:48.592Z,99004.34
2022-11-23T09:10:18.664Z,99002.06
2022-11-23T09:12:47.974Z,99004.34
2022-11-23T09:15:15.449Z,98999.13
2022-11-23T09:17:42.644Z,98997.84
2022-11-23T09:20:10.552Z,98989.09
2022-11-23T09:22:37.717Z,98999.13
2022-11-23T09:25:07.132Z,98991.66
2022-11-23T09:27:34.276Z,98983.06
2022-11-23T09:30:01.336Z,98994.81
2022-11-23T09:32:29.351Z,98983.19
2022-11-23T09:34:56.225Z,98984.97
2022-11-23T09:37:23.121Z,98982.88
2022-11-23T09:39:50.078Z,98979.16
2022-11-23T09:42:38.424Z,98987.94
2022-11-23T09:45:19.118Z,98996.16
2022-11-23T09:48:18.253Z,98986.06
2022-11-23T09:51:05.343Z,98993.56
2022-11-23T09:53:48.148Z,98996.16
2022-11-23T09:56:33.015Z,98991.56
2022-11-23T09:59:17.312Z,98984.28
2022-11-23T10:01:44.348Z,98989.78
2022-11-23T10:04:19.366Z,98985.66
2022-11-23T10:07:17.296Z,98977.09
2022-11-23T10:09:54.038Z,98978.28
2022-11-23T10:13:04.446Z,98966.59
2022-11-23T10:15:54.065Z,98978.19
2022-11-23T10:18:37.786Z,98975.19
2022-11-23T10:21:20.762Z,98967.66
2022-11-23T10:23:55.818Z,98975.34
2022-11-23T10:26:35.089Z,98975.66
2022-11-23T10:29:35.304Z,98971.19
2022-11-23T10:32:22.670Z,98980.25
2022-11-23T10:35:12.504Z,98964.88
2022-11-23T10:37:41.105Z,98960.78
2022-11-23T10:40:24.118Z,98974.00
2022-11-23T10:43:02.917Z,98958.03
2022-11-23T10:45:30.384Z,98950.75
2022-11-23T10:48:00.103Z,98944.25
2022-11-23T10:50:37.666Z,98950.34
2022-11-23T10:53:26.344Z,98933.06
2022-11-23T10:56:01.584Z,98935.66
2022-11-23T10:58:37.025Z,98927.03
2022-11-23T11:01:07.481Z,98929.53
2022-11-23T11:03:35.762Z,98922.19
2022-11-23T11:06:09.484Z,98920.94
2022-11-23T11:08:51.682Z,98916.09
2022-11-23T11:11:29.596Z,98915.91
2022-11-23T11:14:19.155Z,98917.28
2022-11-23T11:16:51.226Z,98901.66
2022-11-23T11:19:31.556Z,98896.97
2022-11-23T11:22:05.144Z,98895.72
2022-11-23T11:24:44.632Z,98891.50
2022-11-23T11:27:38.640Z,98877.31
2022-11-23T11:30:22.130Z,98878.41
2022-11-23T11:33:20.434Z,98874.72
2022-11-23T11:35:52.672Z,98869.00
2022-11-23T11:38:35.038Z,98875.34
2022-11-23T11:41:09.123Z,98871.84
2022-11-23T11:43:44.558Z,98855.66
2022-11-23T11:46:32.580Z,98854.25
2022-11-23T11:49:25.476Z,98849.47
2022-11-23T11:52:05.990Z,98847.63
2022-11-23T11:55:11.305Z,98840.09
2022-11-23T11:57:55.863Z,98825.09
2022-11-23T12:00:23.220Z,98838.63
2022-11-23T12:03:20.525Z,98835.50
2022-11-23T12:05:54.707Z,98831.31
2022-11-23T12:08:33.236Z,98843.13
2022-11-23T12:11:02.273Z,98846.25
2022-11-23T12:13:39.048Z,98839.44
2022-11-23T12:17:16.848Z,98835.34
2022-11-23T12:19:58.112Z,98830.69
2022-11-23T12:22:40.059Z,98818.97
2022-11-23T12:25:28.641Z,98806.94
2022-11-23T12:28:34.676Z,98807.72
2022-11-23T12:31:27.240Z,98801.59
2022-11-23T12:34:25.227Z,98799.56
2022-11-23T12:37:12.998Z,98786.53
2022-11-23T12:40:26.914Z,98786.75
2022-11-23T12:43:13.484Z,98783.50
2022-11-23T12:46:03.314Z,98784.44
2022-11-23T12:48:44.351Z,98775.56
2022-11-23T12:51:53.027Z,98776.66
2022-11-23T12:55:00.433Z,98781.44
2022-11-23T12:57:32.715Z,98778.13
2022-11-23T13:00:16.898Z,98756.34
2022-11-23T13:02:59.354Z,98756.72
2022-11-23T13:06:20.099Z,98763.78
2022-11-23T13:09:26.872Z,98747.72
2022-11-23T13:12:40.274Z,98747.59
2022-11-23T13:15:27.699Z,98738.22
2022-11-23T13:18:15.167Z,98723.53
2022-11-23T13:21:19.103Z,98720.69
2022-11-23T13:23:46.347Z,98711.81
2022-11-23T13:26:39.674Z,98710.94
2022-11-23T13:29:51.235Z,98711.91
2022-11-23T13:32:40.253Z,98723.78
2022-11-23T13:35:19.485Z,98725.63
2022-11-23T13:38:00.264Z,98719.19
2022-11-23T13:40:36.316Z,98716.38
2022-11-23T13:43:21.543Z,98711.66
2022-11-23T13:46:17.034Z,98706.84
2022-11-23T13:48:58.122Z,98708.47
2022-11-23T13:51:30.240Z,98695.25
2022-11-23T13:54:16.075Z,98685.94
2022-11-23T13:56:44.799Z,98689.50
2022-11-23T13:59:30.523Z,98690.50
2022-11-23T14:02:10.220Z,98694.03
2022-11-23T14:04:40.096Z,98687.06
2022-11-23T14:07:25.486Z,98683.75
2022-11-23T14:10:14.146Z,98685.91
2022-11-23T14:12:57.174Z,98685.09
2022-11-23T14:15:27.678Z,98677.13
2022-11-23T14:18:19.599Z,98680.22
2022-11-23T14:21:11.076Z,98681.44
2022-11-23T14:24:46.775Z,98684.09
2022-11-23T14:30:54.970Z,98682.09
2022-11-23T14:33:44.659Z,98684.31
2022-11-23T14:36:27.441Z,98685.75
2022-11-23T14:39:16.249Z,98687.28
2022-11-23T14:41:45.740Z,98674.38
2022-11-23T14:44:14.904Z,98686.34
2022-11-23T14:47:09.262Z,98685.53
2022-11-23T14:49:37.989Z,98682.75
2022-11-23T14:52:06.192Z,98679.25
2022-11-23T14:54:33.587Z,98679.88
2022-11-23T14:57:03.847Z,98675.66
2022-11-23T14:59:37.104Z,98678.34
2022-11-23T15:02:17.658Z,98687.50
2022-11-23T15:05:24.061Z,98709.78
2022-11-23T15:07:59.077Z,98706.66
2022-11-23T15:10:59.615Z,98715.38
2022-11-23T15:13:31.142Z,98717.59
2022-11-23T15:15:59.250Z,98708.75
2022-11-23T15:18:37.877Z,98709.06
2022-11-23T15:21:24.046Z,98717.19
2022-11-23T15:23:57.371Z,98709.59
2022-11-23T15:26:47.303Z,98726.13
2022-11-23T15:29:34.493Z,98743.25
2022-11-23T15:32:29.161Z,98764.94
2022-11-23T15:34:55.949Z,98776.03
2022-11-23T15:37:24.457Z,98773.72
2022-11-23T15:39:54.055Z,98773.13
2022-11-23T15:42:24.517Z,98774.47
2022-11-23T15:44:54.395Z,98776.44
2022-11-23T15:47:27.903Z,98778.75
2022-11-23T15:50:14.063Z,98777.56
2022-11-23T15:52:43.000Z,98788.34
2022-11-23T15:55:15.694Z,98793.81
2022-11-23T15:57:43.793Z,98798.28
2022-11-23T16:00:25.988Z,98795.34
2022-11-23T16:03:29.107Z,98806.09
2022-11-23T16:06:11.446Z,98812.19
2022-11-23T16:08:40.984Z,98813.25
2022-11-23T16:11:26.750Z,98816.84
2022-11-23T16:14:18.802Z,98836.19
2022-11-23T16:16:50.642Z,98840.50
2022-11-23T16:19:38.923Z,98860.47
2022-11-23T16:22:07.755Z,98857.34
2022-11-23T16:24:36.408Z,98867.66
2022-11-23T16:27:14.315Z,98867.75
2022-11-23T16:29:41.816Z,98860.09
2022-11-23T16:32:44.288Z,98854.84
2022-11-23T16:35:17.772Z,98874.41
2022-11-23T16:37:45.222Z,98873.31
2022-11-23T16:40:13.732Z,98876.59
2022-11-23T16:42:41.214Z,98885.75
2022-11-23T16:45:09.097Z,98896.34
2022-11-23T16:47:55.729Z,98897.06
2022-11-23T16:50:24.551Z,98903.06
2022-11-23T16:52:51.808Z,98912.38
2022-11-23T16:55:18.837Z,98919.13
2022-11-23T16:57:46.920Z,98913.16
2022-11-23T17:00:22.391Z,98915.91
2022-11-23T17:02:49.345Z,98913.47
2022-11-23T17:05:21.448Z,98922.56
2022-11-23T17:07:48.478Z,98924.50
2022-11-23T17:10:16.883Z,98935.34
2022-11-23T17:12:51.678Z,98927.75
2022-11-23T17:15:21.641Z,98929.34
2022-11-23T17:17:48.689Z,98933.38
2022-11-23T17:20:17.193Z,98945.47
2022-11-23T17:22:44.870Z,98952.06
2022-11-23T17:25:15.039Z,98954.69
2022-11-23T17:27:43.757Z,98959.41
2022-11-23T17:30:18.943Z,98960.72
2022-11-23T17:32:48.677Z,98961.53
2022-11-23T17:35:16.608Z,98962.44
2022-11-23T17:37:43.893Z,98965.06
2022-11-23T17:40:23.502Z,98968.00
2022-11-23T17:42:50.643Z,98974.81
2022-11-23T17:45:17.551Z,98976.44
2022-11-23T17:47:45.514Z,98975.47
2022-11-23T17:50:19.337Z,98983.41
2022-11-23T17:52:48.111Z,98992.66
2022-11-23T17:55:16.338Z,98984.53
2022-11-23T17:57:43.396Z,98993.97
2022-11-23T18:00:23.020Z,99001.25
2022-11-23T18:02:50.513Z,98995.09
2022-11-23T18:05:21.453Z,98993.16
2022-11-23T18:07:50.554Z,99006.09
2022-11-23T18:10:18.202Z,99018.09
2022-11-23T18:12:46.220Z,99019.56
2022-11-23T18:15:13.495Z,99020.53
2022-11-23T18:17:40.906Z,99026.84
2022-11-23T18:20:10.136Z,99030.41
2022-11-23T18:22:37.570Z,99038.50
2022-11-23T18:25:05.144Z,99042.88
2022-11-23T18:27:32.120Z,99042.25
2022-11-23T18:29:59.118Z,99055.84
2022-11-23T18:32:26.183Z,99064.25
2022-11-23T18:34:53.130Z,99071.84
2022-11-23T18:37:20.393Z,99078.34
2022-11-23T18:39:47.339Z,99086.56
2022-11-23T18:42:15.205Z,99089.97
2022-11-23T18:44:42.556Z,99099.22
2022-11-23T18:47:09.635Z,99107.81
2022-11-23T18:49:36.756Z,99099.13
2022-11-23T18:52:04.899Z,99112.31
2022-11-23T18:54:31.919Z,99105.84
2022-11-23T18:56:58.850Z,99113.13
2022-11-23T18:59:56.214Z,99118.47
2022-11-23T19:02:13.288Z,99125.75
2022-11-23T19:04:40.390Z,99125.28
2022-11-23T19:07:07.560Z,99122.84
2022-11-23T19:09:35.150Z,99123.94
2022-11-23T19:12:02.545Z,99135.00
2022-11-23T19:14:29.404Z,99139.53
2022-11-23T19:16:56.306Z,99144.38
2022-11-23T19:19:23.260Z,99142.28
2022-11-23T19:21:50.280Z,99153.09
2022-11-23T19:24:17.279Z,99156.84
2022-11-23T19:26:44.272Z,99168.34
2022-11-23T19:29:11.549Z,99173.16
2022-11-23T19:31:38.691Z,99180.72
2022-11-23T19:34:06.991Z,99196.19
2022-11-23T19:36:40.583Z,99196.03
2022-11-23T19:39:08.722Z,99204.09
2022-11-23T19:41:35.709Z,99211.56
2022-11-23T19:44:02.952Z,99227.59
2022-11-23T19:46:31.573Z,99243.00
2022-11-23T19:48:59.170Z,99249.19
2022-11-23T19:51:27.577Z,99248.38
2022-11-23T19:54:00.908Z,99254.06
2022-11-23T19:56:29.802Z,99258.91
2022-11-23T19:59:00.202Z,99272.19
2022-11-23T20:01:31.809Z,99274.53
2022-11-23T20:04:08.256Z,99274.09
2022-11-23T20:06:37.547Z,99283.84
2022-11-23T20:09:13.453Z,99289.06
2022-11-23T20:11:41.252Z,99286.94
2022-11-23T20:14:11.230Z,99293.63
2022-11-23T20:16:38.899Z,99289.28
2022-11-23T20:19:08.990Z,99297.69
2022-11-23T20:21:37.391Z,99311.47
2022-11-23T20:24:08.419Z,99317.16
2022-11-23T20:26:36.607Z,99318.78
2022-11-23T20:29:06.057Z,99323.00
2022-11-23T20:31:33.882Z,99335.69
2022-11-23T20:34:04.151Z,99342.34
2022-11-23T20:36:36.019Z,99351.91
2022-11-23T20:39:06.997Z,99357.75
2022-11-23T20:41:36.867Z,99365.84
2022-11-23T20:44:12.794Z,99374.94
2022-11-23T20:49:27.606Z,99376.41
2022-11-23T20:51:54.496Z,99377.22
2022-11-23T20:54:21.496Z,99376.09
2022-11-23T20:56:48.542Z,99370.75
2022-11-23T20:59:15.783Z,99385.50
2022-11-23T21:01:45.186Z,99377.69
2022-11-23T21:04:12.184Z,99389.22
2022-11-23T21:06:40.233Z,99396.06
2022-11-23T21:09:09.719Z,99403.53
2022-11-23T21:11:55.471Z,99394.06
2022-11-23T21:14:27.394Z,99411.59
2022-11-23T21:16:59.803Z,99408.34
2022-11-23T21:19:33.585Z,99403.81
2022-11-23T21:22:20.853Z,99417.13
2022-11-23T21:24:48.040Z,99415.50
2022-11-23T21:27:16.222Z,99428.50
2022-11-23T21:29:44.935Z,99422.94
2022-11-23T21:32:14.710Z,99419.78
2022-11-23T21:34:41.674Z,99430.94
2022-11-23T21:37:12.691Z,99437.91
2022-11-23T21:39:41.458Z,99450.06
2022-11-23T21:42:08.738Z,99448.63
2022-11-23T21:44:35.928Z,99465.94
2022-11-23T21:47:03.116Z,99462.75
2022-11-23T21:49:30.170Z,99471.59
2022-11-23T21:51:57.056Z,99471.38
2022-11-23T21:54:23.998Z,99477.28
2022-11-23T21:56:50.991Z,99482.63
2022-11-23T21:59:17.932Z,99484.63
2022-11-23T22:01:44.916Z,99497.78
2022-11-23T22:04:15.483Z,99503.41
2022-11-23T22:06:45.277Z,99503.78
2022-11-23T22:09:13.164Z,99498.00
2022-11-23T22:11:43.054Z,99508.72
2022-11-23T22:14:13.587Z,99501.72
2022-11-23T22:16:46.379Z,99500.69
2022-11-23T22:19:16.073Z,99510.44
2022-11-23T22:21:45.140Z,99515.34
2022-11-23T22:24:15.599Z,99519.44
2022-11-23T22:26:43.589Z,99516.44
2022-11-23T22:29:10.889Z,99520.41
2022-11-23T22:31:38.175Z,99513.91
2022-11-23T22:34:08.580Z,99522.97
2022-11-23T22:36:35.536Z,99530.78
2022-11-23T22:39:05.751Z,99540.91
2022-11-23T22:41:36.668Z,99539.63
2022-11-23T22:44:06.684Z,99540.50
2022-11-23T22:46:33.713Z,99543.03
2022-11-23T22:49:01.843Z,99550.09
2022-11-23T22:51:30.257Z,99556.09
2022-11-23T22:53:59.663Z,99557.50
2022-11-23T22:56:27.995Z,99557.25
2022-11-23T22:58:55.064Z,99566.00
2022-11-23T23:01:26.346Z,99566.41
2022-11-23T23:03:59.660Z,99569.22
2022-11-23T23:06:29.919Z,99576.63
2022-11-23T23:08:59.980Z,99577.97
2022-11-23T23:11:29.853Z,99574.84
2022-11-23T23:13:57.563Z,99582.28
2022-11-23T23:16:25.708Z,99583.75
2022-11-23T23:18:56.659Z,99585.75
2022-11-23T23:21:25.667Z,99588.19
2022-11-23T23:23:55.485Z,99593.13
2022-11-23T23:26:25.393Z,99593.94
2022-11-23T23:28:57.317Z,99596.00
2022-11-23T23:31:25.425Z,99602.88
2022-11-23T23:33:53.648Z,99612.84
2022-11-23T23:36:22.276Z,99607.91
2022-11-23T23:38:49.279Z,99616.28
2022-11-23T23:41:16.251Z,99615.91
2022-11-23T23:43:43.503Z,99613.88
2022-11-23T23:46:13.439Z,99621.28
2022-11-23T23:48:41.418Z,99621.34
2022-11-23T23:51:23.478Z,99610.31
2022-11-23T23:53:51.504Z,99618.75
2022-11-23T23:56:28.295Z,99620.72
2022-11-23T23:58:57.778Z,99624.00
